createdAt,value
2018-01-23T00:01:32.204Z,4.90
2018-01-23T00:03:59.802Z,4.90
2018-01-23T00:06:27.433Z,4.90
2018-01-23T00:08:55.782Z,4.70
2018-01-23T00:11:23.368Z,4.60
2018-01-23T00:13:51.703Z,4.70
2018-01-23T00:16:19.319Z,4.70
2018-01-23T00:18:46.906Z,4.70
2018-01-23T00:21:14.472Z,4.80
2018-01-23T00:23:42.074Z,4.80
2018-01-23T00:26:10.440Z,4.80
2018-01-23T00:28:38.048Z,4.80
2018-01-23T00:31:05.695Z,4.80
2018-01-23T00:33:34.336Z,4.70
2018-01-23T00:36:01.932Z,4.70
2018-01-23T00:38:29.530Z,4.70
2018-01-23T00:40:57.122Z,4.80
2018-01-23T00:43:24.833Z,4.80
2018-01-23T00:45:52.430Z,4.70
2018-01-23T00:48:20.038Z,4.80
2018-01-23T00:50:47.618Z,4.70
2018-01-23T00:53:15.234Z,4.70
2018-01-23T00:55:43.614Z,4.70
2018-01-23T00:58:11.962Z,4.70
2018-01-23T01:00:40.335Z,4.70
2018-01-23T01:03:08.130Z,4.70
2018-01-23T01:05:36.463Z,4.80
2018-01-23T01:08:04.046Z,4.80
2018-01-23T01:10:31.672Z,4.80
2018-01-23T01:12:59.270Z,4.80
2018-01-23T01:15:27.638Z,4.80
2018-01-23T01:17:55.239Z,4.80
2018-01-23T01:20:22.839Z,4.80
2018-01-23T01:22:50.449Z,4.80
2018-01-23T01:25:18.038Z,4.80
2018-01-23T01:27:45.650Z,4.90
2018-01-23T01:30:13.997Z,5.00
2018-01-23T01:32:41.565Z,5.00
2018-01-23T01:35:09.411Z,5.10
2018-01-23T01:37:36.976Z,5.10
2018-01-23T01:40:04.670Z,5.00
2018-01-23T01:42:33.008Z,4.80
2018-01-23T01:45:00.649Z,4.80
2018-01-23T01:47:28.251Z,4.80
2018-01-23T01:49:55.842Z,4.90
2018-01-23T01:52:23.456Z,4.80
2018-01-23T01:54:51.040Z,4.70
2018-01-23T01:57:19.408Z,4.70
2018-01-23T01:59:47.780Z,4.70
2018-01-23T02:02:15.378Z,4.70
2018-01-23T02:04:42.980Z,4.70
2018-01-23T02:07:10.569Z,4.80
2018-01-23T02:09:38.931Z,4.80
2018-01-23T02:12:06.528Z,4.80
2018-01-23T02:14:34.130Z,4.80
2018-01-23T02:17:01.748Z,4.90
2018-01-23T02:19:29.424Z,5.00
2018-01-23T02:21:57.038Z,5.00
2018-01-23T02:24:25.420Z,4.90
2018-01-23T02:26:53.779Z,4.90
2018-01-23T02:29:22.163Z,4.90
2018-01-23T02:31:49.834Z,4.80
2018-01-23T02:34:18.332Z,4.70
2018-01-23T02:36:45.923Z,4.70
2018-01-23T02:39:13.523Z,4.70
2018-01-23T02:41:41.908Z,4.80
2018-01-23T02:44:10.274Z,4.70
2018-01-23T02:46:37.856Z,4.70
2018-01-23T02:49:05.524Z,4.70
2018-01-23T02:51:33.270Z,4.70
2018-01-23T02:54:01.648Z,4.70
2018-01-23T02:56:30.010Z,4.80
2018-01-23T02:58:58.383Z,4.80
2018-01-23T03:01:26.380Z,4.70
2018-01-23T03:03:54.180Z,4.80
2018-01-23T03:06:21.766Z,4.80
2018-01-23T03:08:49.372Z,4.70
2018-01-23T03:11:16.970Z,4.60
2018-01-23T03:13:44.580Z,4.60
2018-01-23T03:16:12.162Z,4.50
2018-01-23T03:18:39.770Z,4.50
2018-01-23T03:21:07.358Z,4.60
2018-01-23T03:23:34.956Z,4.50
2018-01-23T03:26:02.558Z,4.40
2018-01-23T03:28:30.981Z,4.50
2018-01-23T03:30:58.617Z,4.40
2018-01-23T03:33:26.224Z,4.40
2018-01-23T03:35:53.813Z,4.50
2018-01-23T03:38:22.207Z,4.50
2018-01-23T03:40:49.795Z,4.50
2018-01-23T03:43:17.404Z,4.50
2018-01-23T03:45:45.775Z,4.40
2018-01-23T03:48:14.128Z,4.40
2018-01-23T03:50:41.778Z,4.30
2018-01-23T03:53:09.348Z,4.50
2018-01-23T03:55:36.937Z,4.40
2018-01-23T03:58:05.299Z,4.30
2018-01-23T04:00:33.650Z,4.30
2018-01-23T04:03:01.229Z,4.30
2018-01-23T04:05:28.836Z,4.40
2018-01-23T04:07:56.434Z,4.40
2018-01-23T04:10:24.144Z,4.40
2018-01-23T04:12:51.758Z,4.40
2018-01-23T04:15:19.360Z,4.40
2018-01-23T04:17:47.001Z,4.30
2018-01-23T04:20:15.377Z,4.30
2018-01-23T04:22:43.743Z,4.30
2018-01-23T04:25:11.308Z,4.30
2018-01-23T04:27:39.686Z,4.30
2018-01-23T04:30:08.065Z,4.40
2018-01-23T04:32:36.422Z,4.30
2018-01-23T04:35:04.210Z,4.30
2018-01-23T04:37:32.563Z,4.40
2018-01-23T04:40:00.190Z,4.30
2018-01-23T04:42:27.787Z,4.20
2018-01-23T04:44:55.416Z,4.30
2018-01-23T04:47:23.069Z,4.30
2018-01-23T04:49:50.654Z,4.30
2018-01-23T04:52:18.254Z,4.40
2018-01-23T04:54:46.765Z,4.30
2018-01-23T04:57:14.356Z,4.30
2018-01-23T04:59:41.954Z,4.30
2018-01-23T05:02:09.590Z,4.30
2018-01-23T05:04:37.326Z,4.10
2018-01-23T05:07:04.894Z,4.20
2018-01-23T05:09:32.486Z,4.20
2018-01-23T05:12:00.900Z,4.20
2018-01-23T05:14:28.504Z,4.10
2018-01-23T05:16:56.100Z,4.30
2018-01-23T05:19:23.670Z,4.20
2018-01-23T05:21:51.281Z,4.20
2018-01-23T05:24:18.886Z,4.10
2018-01-23T05:26:46.456Z,4.20
2018-01-23T05:29:14.239Z,4.20
2018-01-23T05:31:41.845Z,4.20
2018-01-23T05:34:09.436Z,4.20
2018-01-23T05:36:37.048Z,4.10
2018-01-23T05:39:05.417Z,3.90
2018-01-23T05:41:33.820Z,4.10
2018-01-23T05:44:01.475Z,4.10
2018-01-23T05:46:29.044Z,4.20
2018-01-23T05:48:56.633Z,4.30
2018-01-23T05:51:24.208Z,4.20
2018-01-23T05:53:51.832Z,4.20
2018-01-23T05:56:19.677Z,4.20
2018-01-23T05:58:47.367Z,4.10
2018-01-23T06:01:14.956Z,4.20
2018-01-23T06:03:42.554Z,4.20
2018-01-23T06:06:10.178Z,4.10
2018-01-23T06:08:37.754Z,4.10
2018-01-23T06:11:06.178Z,4.20
2018-01-23T06:13:33.785Z,4.20
2018-01-23T06:16:01.370Z,4.30
2018-01-23T06:18:28.959Z,4.30
2018-01-23T06:20:56.536Z,4.20
2018-01-23T06:23:24.140Z,4.30
2018-01-23T06:25:51.795Z,4.30
2018-01-23T06:28:20.141Z,4.20
2018-01-23T06:30:47.804Z,4.20
2018-01-23T06:33:15.406Z,4.20
2018-01-23T06:35:42.998Z,4.30
2018-01-23T06:38:10.569Z,4.50
2018-01-23T06:40:38.182Z,4.60
2018-01-23T06:43:05.767Z,4.50
2018-01-23T06:45:33.360Z,4.70
2018-01-23T06:48:00.954Z,4.60
2018-01-23T06:50:28.639Z,4.70
2018-01-23T06:52:56.205Z,4.80
2018-01-23T06:55:23.793Z,4.70
2018-01-23T06:57:51.378Z,4.70
2018-01-23T07:00:19.792Z,4.60
2018-01-23T07:02:47.390Z,4.60
2018-01-23T07:05:14.972Z,4.60
2018-01-23T07:07:43.313Z,4.40
2018-01-23T07:10:10.928Z,4.40
2018-01-23T07:12:38.516Z,4.40
2018-01-23T07:15:06.114Z,4.40
2018-01-23T07:17:47.383Z,4.40
2018-01-23T07:20:15.160Z,4.30
2018-01-23T07:22:43.740Z,4.50
2018-01-23T07:25:12.104Z,4.50
2018-01-23T07:27:39.786Z,4.40
2018-01-23T07:30:08.205Z,4.60
2018-01-23T07:32:35.780Z,4.60
2018-01-23T07:35:03.378Z,4.60
2018-01-23T07:37:31.870Z,4.70
2018-01-23T07:39:59.451Z,4.60
2018-01-23T07:42:27.054Z,4.60
2018-01-23T07:44:54.706Z,4.70
2018-01-23T07:47:22.957Z,4.70
2018-01-23T07:49:50.547Z,4.80
2018-01-23T07:52:18.166Z,4.80
2018-01-23T07:54:45.879Z,4.80
2018-01-23T07:57:14.283Z,4.70
2018-01-23T07:59:42.014Z,4.60
2018-01-23T08:02:09.603Z,4.60
2018-01-23T08:04:37.255Z,4.70
2018-01-23T08:07:05.600Z,4.80
2018-01-23T08:09:33.165Z,4.80
2018-01-23T08:12:00.838Z,4.70
2018-01-23T08:14:29.199Z,4.80
2018-01-23T08:16:56.896Z,4.80
2018-01-23T08:19:24.517Z,4.80
2018-01-23T08:21:52.117Z,4.80
2018-01-23T08:24:19.776Z,4.80
2018-01-23T08:26:47.385Z,4.90
2018-01-23T08:29:14.971Z,4.90
2018-01-23T08:31:43.346Z,4.90
2018-01-23T08:34:11.775Z,5.00
2018-01-23T08:36:39.362Z,5.00
2018-01-23T08:39:06.968Z,5.10
2018-01-23T08:41:34.541Z,5.10
2018-01-23T08:44:02.284Z,5.00
2018-01-23T08:46:29.870Z,5.00
2018-01-23T08:48:57.447Z,4.90
2018-01-23T08:51:25.190Z,5.00
2018-01-23T08:53:52.820Z,5.10
2018-01-23T08:56:20.556Z,5.10
2018-01-23T08:58:48.132Z,5.20
2018-01-23T09:01:15.726Z,5.30
2018-01-23T09:03:43.336Z,5.30
2018-01-23T09:06:11.674Z,5.20
2018-01-23T09:08:39.256Z,5.20
2018-01-23T09:11:07.100Z,5.20
2018-01-23T09:13:34.842Z,5.10
2018-01-23T09:16:02.426Z,5.20
2018-01-23T09:18:30.015Z,5.20
2018-01-23T09:20:58.516Z,5.20
2018-01-23T09:23:26.095Z,5.10
2018-01-23T09:25:53.781Z,5.20
2018-01-23T09:28:21.396Z,5.30
2018-01-23T09:30:49.056Z,5.40
2018-01-23T09:33:17.412Z,5.20
2018-01-23T09:35:45.755Z,5.40
2018-01-23T09:38:13.454Z,5.40
2018-01-23T09:40:41.826Z,5.30
2018-01-23T09:43:10.174Z,5.40
2018-01-23T09:45:37.766Z,5.30
2018-01-23T09:48:06.122Z,5.60
2018-01-23T09:50:33.752Z,5.50
2018-01-23T09:53:01.366Z,5.50
2018-01-23T09:55:29.779Z,5.60
2018-01-23T09:57:57.610Z,5.50
2018-01-23T10:00:25.991Z,5.70
2018-01-23T10:02:53.587Z,5.70
2018-01-23T10:05:21.182Z,5.60
2018-01-23T10:07:48.745Z,5.70
2018-01-23T10:10:16.380Z,5.70
2018-01-23T10:12:43.962Z,5.70
2018-01-23T10:15:11.556Z,5.80
2018-01-23T10:17:39.171Z,5.80
2018-01-23T10:20:06.752Z,5.70
2018-01-23T10:22:35.098Z,5.80
2018-01-23T10:25:02.775Z,5.70
2018-01-23T10:27:30.374Z,5.80
2018-01-23T10:29:57.964Z,5.80
2018-01-23T10:32:25.554Z,5.80
2018-01-23T10:34:53.904Z,6.00
2018-01-23T10:37:21.617Z,6.00
2018-01-23T10:39:49.859Z,5.90
2018-01-23T10:42:17.469Z,5.80
2018-01-23T10:44:45.072Z,6.00
2018-01-23T10:47:12.692Z,6.00
2018-01-23T10:49:40.355Z,6.00
2018-01-23T10:52:07.952Z,6.00
2018-01-23T10:54:35.629Z,5.90
2018-01-23T10:57:03.985Z,6.00
2018-01-23T10:59:31.571Z,6.00
2018-01-23T11:01:59.940Z,5.90
2018-01-23T11:04:28.282Z,5.90
2018-01-23T11:06:55.883Z,5.90
2018-01-23T11:09:24.236Z,5.90
2018-01-23T11:11:51.906Z,5.90
2018-01-23T11:14:20.255Z,6.20
2018-01-23T11:16:47.848Z,6.20
2018-01-23T11:19:16.238Z,6.20
2018-01-23T11:21:43.932Z,6.20
2018-01-23T11:24:11.761Z,6.30
2018-01-23T11:26:40.117Z,6.20
2018-01-23T11:29:07.728Z,6.10
2018-01-23T11:31:35.323Z,6.20
2018-01-23T11:34:02.999Z,6.20
2018-01-23T11:36:31.369Z,6.30
2018-01-23T11:38:58.934Z,6.30
2018-01-23T11:41:27.292Z,6.40
2018-01-23T11:43:55.008Z,6.40
2018-01-23T11:46:22.600Z,6.40
2018-01-23T11:48:50.165Z,6.50
2018-01-23T11:51:17.777Z,6.50
2018-01-23T11:53:45.378Z,6.50
2018-01-23T11:56:12.952Z,6.50
2018-01-23T11:58:41.393Z,6.50
2018-01-23T12:01:08.971Z,6.50
2018-01-23T12:03:36.591Z,6.60
2018-01-23T12:06:04.175Z,6.60
2018-01-23T12:08:31.750Z,6.70
2018-01-23T12:10:59.457Z,6.60
2018-01-23T12:13:27.812Z,6.70
2018-01-23T12:15:55.393Z,6.60
2018-01-23T12:18:23.780Z,6.70
2018-01-23T12:20:51.404Z,6.60
2018-01-23T12:23:19.012Z,6.70
2018-01-23T12:25:46.677Z,6.80
2018-01-23T12:28:14.261Z,6.80
2018-01-23T12:30:41.871Z,6.90
2018-01-23T12:33:09.737Z,6.90
2018-01-23T12:35:37.374Z,6.90
2018-01-23T12:38:05.736Z,6.90
2018-01-23T12:40:33.319Z,6.80
2018-01-23T12:43:01.663Z,6.90
2018-01-23T12:45:29.240Z,6.90
2018-01-23T12:47:56.833Z,7.00
2018-01-23T12:50:24.434Z,7.00
2018-01-23T12:52:52.016Z,7.00
2018-01-23T12:55:20.368Z,7.00
2018-01-23T12:57:48.126Z,7.00
2018-01-23T13:00:15.693Z,7.00
2018-01-23T13:02:43.285Z,7.10
2018-01-23T13:05:11.641Z,7.00
2018-01-23T13:07:39.218Z,7.00
2018-01-23T13:10:07.589Z,7.10
2018-01-23T13:12:35.956Z,7.10
2018-01-23T13:15:03.535Z,7.00
2018-01-23T13:17:31.941Z,7.10
2018-01-23T13:19:59.684Z,7.10
2018-01-23T13:22:27.557Z,7.10
2018-01-23T13:24:56.133Z,7.20
2018-01-23T13:27:23.701Z,7.10
2018-01-23T13:29:51.349Z,7.10
2018-01-23T13:32:18.913Z,7.20
2018-01-23T13:34:47.121Z,7.20
2018-01-23T13:37:14.758Z,7.20
2018-01-23T13:39:42.343Z,7.10
2018-01-23T13:42:09.929Z,7.10
2018-01-23T13:44:37.516Z,7.10
2018-01-23T13:47:05.096Z,7.10
2018-01-23T13:49:32.720Z,7.20
2018-01-23T13:52:01.100Z,7.20
2018-01-23T13:54:29.465Z,7.30
2018-01-23T13:56:57.822Z,7.10
2018-01-23T13:59:25.407Z,7.10
2018-01-23T14:01:53.810Z,7.10
2018-01-23T14:04:21.416Z,7.00
2018-01-23T14:06:49.015Z,7.00
2018-01-23T14:09:16.613Z,7.00
2018-01-23T14:11:44.190Z,7.10
2018-01-23T14:14:11.792Z,7.10
2018-01-23T14:16:39.375Z,7.10
2018-01-23T14:19:06.937Z,7.00
2018-01-23T14:21:34.540Z,7.00
2018-01-23T14:24:02.121Z,7.00
2018-01-23T14:26:30.458Z,6.90
2018-01-23T14:28:58.059Z,6.90
2018-01-23T14:31:25.627Z,6.80
2018-01-23T14:33:53.248Z,6.70
2018-01-23T14:36:20.860Z,6.60
2018-01-23T14:38:48.420Z,6.70
2018-01-23T14:41:16.000Z,6.50
2018-01-23T14:43:43.601Z,6.60
2018-01-23T14:46:11.974Z,6.60
2018-01-23T14:48:40.320Z,6.70
2018-01-23T14:51:07.884Z,6.60
2018-01-23T14:53:36.258Z,6.90
2018-01-23T14:56:03.834Z,6.80
2018-01-23T14:58:32.209Z,6.80
2018-01-23T15:00:59.800Z,6.70
2018-01-23T15:03:27.428Z,6.70
2018-01-23T15:05:55.790Z,6.50
2018-01-23T15:08:23.378Z,6.50
2018-01-23T15:10:51.736Z,6.70
2018-01-23T15:13:19.334Z,6.60
2018-01-23T15:15:47.173Z,6.70
2018-01-23T15:18:15.568Z,6.60
2018-01-23T15:20:43.136Z,6.60
2018-01-23T15:23:10.742Z,6.50
2018-01-23T15:25:38.316Z,7.00
2018-01-23T15:28:05.908Z,7.10
2018-01-23T15:30:33.519Z,7.50
2018-01-23T15:33:01.095Z,7.30
2018-01-23T15:35:29.442Z,7.60
2018-01-23T15:37:57.046Z,7.60
2018-01-23T15:40:25.386Z,7.00
2018-01-23T15:42:53.213Z,6.90
2018-01-23T15:45:20.803Z,6.70
2018-01-23T15:47:48.710Z,6.70
2018-01-23T15:50:16.493Z,7.00
2018-01-23T15:52:44.069Z,7.30
2018-01-23T15:55:11.667Z,7.40
2018-01-23T15:57:39.243Z,7.20
2018-01-23T16:00:07.589Z,6.90
2018-01-23T16:02:35.176Z,6.80
2018-01-23T16:05:03.557Z,6.80
2018-01-23T16:07:31.920Z,6.70
2018-01-23T16:09:59.576Z,6.70
2018-01-23T16:12:27.258Z,6.60
2018-01-23T16:14:55.670Z,6.40
2018-01-23T16:17:23.281Z,6.40
2018-01-23T16:19:51.749Z,6.40
2018-01-23T16:22:19.338Z,6.40
2018-01-23T16:24:46.962Z,6.30
2018-01-23T16:27:14.590Z,6.30
2018-01-23T16:29:42.196Z,6.20
2018-01-23T16:32:10.562Z,6.20
2018-01-23T16:34:38.156Z,6.10
2018-01-23T16:37:05.755Z,6.10
2018-01-23T16:39:33.358Z,6.10
2018-01-23T16:42:01.696Z,6.10
2018-01-23T16:44:29.304Z,6.10
2018-01-23T16:46:56.957Z,6.10
2018-01-23T16:49:25.288Z,6.10
2018-01-23T16:51:52.866Z,6.00
2018-01-23T16:54:20.585Z,6.10
2018-01-23T16:56:48.154Z,6.10
2018-01-23T16:59:15.756Z,6.10
2018-01-23T17:01:44.119Z,6.10
2018-01-23T17:04:11.696Z,6.10
2018-01-23T17:06:40.069Z,6.00
2018-01-23T17:09:08.416Z,6.10
2018-01-23T17:11:36.006Z,6.00
2018-01-23T17:14:04.388Z,5.80
2018-01-23T17:16:32.061Z,5.80
2018-01-23T17:18:59.720Z,5.80
2018-01-23T17:21:27.360Z,5.70
2018-01-23T17:23:55.789Z,5.50
2018-01-23T17:26:23.378Z,5.40
2018-01-23T17:28:50.982Z,5.50
2018-01-23T17:31:18.552Z,5.50
2018-01-23T17:33:46.154Z,5.50
2018-01-23T17:36:13.738Z,5.30
2018-01-23T17:38:42.108Z,5.20
2018-01-23T17:41:10.448Z,5.10
2018-01-23T17:43:38.076Z,5.10
2018-01-23T17:46:05.706Z,5.20
2018-01-23T17:48:34.097Z,5.00
2018-01-23T17:51:01.668Z,5.00
2018-01-23T17:53:29.306Z,5.10
2018-01-23T17:55:57.726Z,5.10
2018-01-23T17:58:25.314Z,5.10
2018-01-23T18:00:52.918Z,5.10
2018-01-23T18:03:20.537Z,5.10
2018-01-23T18:05:48.135Z,5.10
2018-01-23T18:08:15.724Z,5.10
2018-01-23T18:10:43.317Z,5.10
2018-01-23T18:13:11.116Z,5.10
2018-01-23T18:15:38.685Z,5.10
2018-01-23T18:18:06.348Z,5.10
2018-01-23T18:20:33.970Z,5.20
2018-01-23T18:23:02.340Z,5.20
2018-01-23T18:25:29.914Z,5.20
2018-01-23T18:27:58.256Z,5.20
2018-01-23T18:30:25.827Z,5.10
2018-01-23T18:32:53.410Z,5.10
2018-01-23T18:35:21.768Z,5.00
2018-01-23T18:37:49.416Z,5.00
2018-01-23T18:40:17.008Z,5.00
2018-01-23T18:42:45.370Z,4.90
2018-01-23T18:45:13.738Z,4.90
2018-01-23T18:47:41.340Z,4.80
2018-01-23T18:50:08.961Z,4.90
2018-01-23T18:52:36.531Z,5.10
2018-01-23T18:55:04.911Z,4.90
2018-01-23T18:57:33.276Z,4.90
2018-01-23T19:00:00.848Z,4.80
2018-01-23T19:02:29.193Z,4.70
2018-01-23T19:04:56.827Z,4.70
2018-01-23T19:07:24.423Z,4.80
2018-01-23T19:09:52.058Z,4.70
2018-01-23T19:12:19.630Z,4.80
2018-01-23T19:14:47.204Z,4.80
2018-01-23T19:17:15.790Z,4.80
2018-01-23T19:19:44.262Z,5.00
2018-01-23T19:22:11.846Z,4.90
2018-01-23T19:24:39.582Z,5.00
2018-01-23T19:27:07.268Z,5.00
2018-01-23T19:29:34.963Z,4.90
2018-01-23T19:32:02.559Z,4.90
2018-01-23T19:34:30.192Z,4.80
2018-01-23T19:36:57.860Z,4.90
2018-01-23T19:39:25.453Z,4.90
2018-01-23T19:41:53.817Z,4.70
2018-01-23T19:44:21.436Z,4.70
2018-01-23T19:46:49.000Z,4.70
2018-01-23T19:49:16.608Z,4.70
2018-01-23T19:51:44.976Z,4.70
2018-01-23T19:54:13.402Z,4.70
2018-01-23T19:56:41.014Z,4.60
2018-01-23T19:59:09.413Z,4.50
2018-01-23T20:01:37.000Z,4.40
2018-01-23T20:04:04.720Z,4.40
2018-01-23T20:06:32.314Z,4.40
2018-01-23T20:08:59.918Z,4.30
2018-01-23T20:11:27.638Z,4.20
2018-01-23T20:13:55.430Z,4.30
2018-01-23T20:16:23.036Z,4.20
2018-01-23T20:18:50.611Z,4.20
2018-01-23T20:21:18.242Z,4.20
2018-01-23T20:23:46.615Z,4.10
2018-01-23T20:26:15.028Z,4.10
2018-01-23T20:28:43.108Z,4.00
2018-01-23T20:31:10.756Z,4.00
2018-01-23T20:33:38.573Z,4.00
2018-01-23T20:36:06.142Z,3.90
2018-01-23T20:38:34.516Z,3.80
2018-01-23T20:41:02.888Z,3.80
2018-01-23T20:43:31.239Z,3.60
2018-01-23T20:45:58.849Z,3.60
2018-01-23T20:48:26.442Z,3.60
2018-01-23T20:50:54.040Z,3.60
2018-01-23T20:53:21.646Z,3.60
2018-01-23T20:55:49.260Z,3.60
2018-01-23T20:58:16.976Z,3.60
2018-01-23T21:00:44.570Z,3.60
2018-01-23T21:03:12.206Z,3.50
2018-01-23T21:05:39.852Z,3.50
2018-01-23T21:08:07.432Z,3.40
2018-01-23T21:10:35.062Z,3.40
2018-01-23T21:13:02.683Z,3.30
2018-01-23T21:15:31.042Z,3.30
2018-01-23T21:17:58.650Z,3.30
2018-01-23T21:20:26.254Z,3.30
2018-01-23T21:22:53.908Z,3.30
2018-01-23T21:25:21.526Z,3.30
2018-01-23T21:27:49.328Z,3.30
2018-01-23T21:30:16.947Z,3.10
2018-01-23T21:32:45.656Z,3.10
2018-01-23T21:35:13.301Z,3.20
2018-01-23T21:37:40.889Z,3.10
2018-01-23T21:40:08.486Z,3.00
2018-01-23T21:42:37.100Z,3.00
2018-01-23T21:45:04.756Z,3.00
2018-01-23T21:47:32.344Z,3.10
2018-01-23T21:49:59.929Z,3.00
2018-01-23T21:52:27.526Z,2.90
2018-01-23T21:54:55.109Z,2.80
2018-01-23T21:57:24.607Z,2.80
2018-01-23T21:59:52.192Z,2.80
2018-01-23T22:02:19.772Z,2.70
2018-01-23T22:04:47.360Z,2.70
2018-01-23T22:07:15.142Z,2.70
2018-01-23T22:09:42.717Z,2.80
2018-01-23T22:12:10.332Z,2.80
2018-01-23T22:14:39.153Z,2.80
2018-01-23T22:17:06.809Z,2.70
2018-01-23T22:19:34.407Z,2.80
2018-01-23T22:22:02.079Z,2.80
2018-01-23T22:24:30.462Z,2.80
2018-01-23T22:26:58.810Z,2.70
2018-01-23T22:29:26.390Z,2.70
2018-01-23T22:31:54.002Z,2.80
2018-01-23T22:34:21.746Z,2.70
2018-01-23T22:36:49.327Z,2.70
2018-01-23T22:39:17.038Z,2.70
2018-01-23T22:41:45.418Z,2.70
2018-01-23T22:44:13.811Z,2.50
2018-01-23T22:46:41.391Z,2.50
2018-01-23T22:49:08.984Z,2.50
2018-01-23T22:51:36.688Z,2.50
2018-01-23T22:54:04.314Z,2.40
2018-01-23T22:56:31.902Z,2.40
2018-01-23T22:58:59.566Z,2.40
2018-01-23T23:01:27.789Z,2.30
2018-01-23T23:03:55.485Z,2.40
2018-01-23T23:06:23.859Z,2.40
2018-01-23T23:08:52.240Z,2.40
2018-01-23T23:11:20.586Z,2.30
2018-01-23T23:14:00.019Z,2.30
2018-01-23T23:16:27.658Z,2.40
2018-01-23T23:18:55.262Z,2.30
2018-01-23T23:21:23.613Z,2.30
2018-01-23T23:23:51.325Z,2.30
2018-01-23T23:26:18.925Z,2.20
2018-01-23T23:28:46.493Z,2.20
2018-01-23T23:31:14.089Z,2.20
2018-01-23T23:33:41.709Z,2.20
2018-01-23T23:36:09.294Z,2.10
2018-01-23T23:38:37.696Z,2.10
2018-01-23T23:41:05.303Z,2.00
2018-01-23T23:43:32.940Z,2.10
2018-01-23T23:46:00.554Z,2.10
2018-01-23T23:48:28.906Z,2.10
2018-01-23T23:50:56.496Z,2.10
2018-01-23T23:53:24.876Z,2.20
2018-01-23T23:55:52.473Z,2.20
2018-01-23T23:58:20.068Z,2.20
